Time;durP1;ratioP1;P1;durP2;ratioP2;P2;SDS_P1;SDS_P2;PMS_P1;PMS_P2;Temp;Humidity;BMP_temperature;BMP_pressure;BME280_temperature;BME280_humidity;BME280_pressure;Samples;Min_cycle;Max_cycle;Signal;HPM_P1;HPM_P2
2022/08/18 00:00:32;;;;;;;7.80;5.83;;;17.40;99.90;;;;;;5088653;28;20495;-61
2022/08/18 00:03:02;;;;;;;5.97;5.30;;;17.40;99.90;;;;;;5082890;28;20447;-61
2022/08/18 00:05:27;;;;;;;11.17;6.23;;;17.30;99.90;;;;;;5088788;28;20432;-60
2022/08/18 00:07:53;;;;;;;6.40;5.50;;;17.40;99.90;;;;;;5082841;28;20427;-59
2022/08/18 00:10:19;;;;;;;8.30;5.70;;;17.40;99.90;;;;;;5089396;28;20189;-61
2022/08/18 00:12:44;;;;;;;6.70;5.53;;;17.30;99.90;;;;;;5077934;28;20179;-61
2022/08/18 00:15:13;;;;;;;7.50;5.67;;;17.30;99.90;;;;;;5082884;28;20223;-60
2022/08/18 00:17:39;;;;;;;6.10;5.23;;;17.30;99.90;;;;;;5078898;28;20320;-60
2022/08/18 00:20:09;;;;;;;8.73;5.40;;;17.30;99.90;;;;;;5089187;28;20781;-61
2022/08/18 00:22:35;;;;;;;6.70;6.00;;;17.20;99.90;;;;;;5084691;28;20472;-61
2022/08/18 00:25:01;;;;;;;6.27;5.57;;;17.20;99.90;;;;;;5086713;28;20488;-59
2022/08/18 00:27:29;;;;;;;7.30;5.50;;;17.20;99.90;;;;;;5069503;28;20409;-61
2022/08/18 00:30:00;;;;;;;6.50;5.70;;;17.20;99.90;;;;;;5070130;28;20178;-61
2022/08/18 00:32:32;;;;;;;10.20;7.83;;;17.20;99.90;;;;;;5073861;28;20433;-61
2022/08/18 00:35:15;;;;;;;7.00;6.30;;;17.20;99.90;;;;;;5087527;28;20626;-61
2022/08/18 00:37:42;;;;;;;6.70;5.70;;;17.10;99.90;;;;;;5085771;28;20582;-60
2022/08/18 00:40:11;;;;;;;10.90;5.90;;;17.10;99.90;;;;;;5087489;28;20489;-61
2022/08/18 00:42:51;;;;;;;6.60;5.83;;;17.10;99.90;;;;;;5086361;28;20428;-61
2022/08/18 00:45:28;;;;;;;6.20;5.23;;;17.10;99.90;;;;;;5083400;28;20452;-61
2022/08/18 00:47:53;;;;;;;8.20;5.60;;;17.00;99.90;;;;;;5080716;28;20567;-59
2022/08/18 00:50:26;;;;;;;7.17;6.20;;;17.00;99.90;;;;;;5073136;28;20454;-61
2022/08/18 00:52:57;;;;;;;6.00;5.40;;;17.00;99.90;;;;;;5080659;28;20231;-61
2022/08/18 00:55:24;;;;;;;8.60;6.70;;;16.90;99.90;;;;;;5083706;28;20436;-61
2022/08/18 00:57:53;;;;;;;11.90;6.37;;;16.90;99.90;;;;;;5068072;28;20873;-61
2022/08/18 01:00:21;;;;;;;12.27;6.10;;;16.90;99.90;;;;;;5071470;28;20428;-61
2022/08/18 01:02:53;;;;;;;9.90;5.90;;;16.90;99.90;;;;;;5074947;28;20475;-60
2022/08/18 01:05:29;;;;;;;13.77;6.60;;;16.90;99.90;;;;;;5085305;28;20445;-61
2022/08/18 01:07:55;;;;;;;6.93;6.03;;;16.90;99.90;;;;;;5086055;28;20438;-61
2022/08/18 01:10:22;;;;;;;7.70;6.57;;;16.80;99.90;;;;;;5086294;28;20463;-61
2022/08/18 01:12:57;;;;;;;11.70;6.50;;;16.90;99.90;;;;;;5077003;28;20420;-61
2022/08/18 01:15:24;;;;;;;10.80;5.97;;;16.90;99.90;;;;;;5081329;28;20444;-61
2022/08/18 01:23:48;;;;;;;7.40;5.73;;;16.90;99.90;;;;;;5088314;28;21005;-60
2022/08/18 01:26:16;;;;;;;7.67;6.13;;;16.80;99.90;;;;;;5086356;28;20501;-59
2022/08/18 01:28:45;;;;;;;8.00;5.97;;;16.90;99.90;;;;;;5082708;28;20408;-61
2022/08/18 01:31:27;;;;;;;12.80;6.60;;;16.80;99.90;;;;;;5083425;28;20432;-61
2022/08/18 01:33:53;;;;;;;18.77;6.23;;;16.90;99.90;;;;;;5079333;28;20454;-61
2022/08/18 01:36:20;;;;;;;12.23;6.57;;;16.90;99.90;;;;;;5082489;28;20423;-61
2022/08/18 01:38:49;;;;;;;9.03;6.47;;;16.90;99.90;;;;;;5079172;28;20484;-61
2022/08/18 01:41:18;;;;;;;6.20;5.40;;;16.90;99.90;;;;;;5072321;28;20424;-61
2022/08/18 01:43:45;;;;;;;10.30;6.20;;;16.90;99.90;;;;;;5088710;28;20461;-61
2022/08/18 01:46:11;;;;;;;9.80;6.50;;;16.80;99.90;;;;;;5086653;28;20420;-61
2022/08/18 01:48:38;;;;;;;7.27;6.00;;;16.80;99.90;;;;;;5080601;28;20474;-61
2022/08/18 01:51:08;;;;;;;8.17;6.53;;;16.80;99.90;;;;;;5078966;28;20438;-61
2022/08/18 01:53:35;;;;;;;9.23;6.00;;;16.80;99.90;;;;;;5087823;28;20527;-61
2022/08/18 01:56:04;;;;;;;8.27;6.53;;;16.80;99.90;;;;;;5071522;28;21013;-60
2022/08/18 01:58:30;;;;;;;10.40;6.93;;;16.80;99.90;;;;;;5081129;28;20458;-61
2022/08/18 02:00:57;;;;;;;9.17;6.87;;;16.80;99.90;;;;;;5080334;28;20464;-58
2022/08/18 02:03:27;;;;;;;8.97;7.07;;;16.80;99.90;;;;;;5073421;28;20448;-61
2022/08/18 02:05:58;;;;;;;11.97;7.23;;;16.70;99.90;;;;;;5080674;28;20447;-61
2022/08/18 02:08:24;;;;;;;7.00;5.87;;;16.70;99.90;;;;;;5082601;28;20423;-61
2022/08/18 02:10:50;;;;;;;8.93;6.70;;;16.70;99.90;;;;;;5082888;28;20484;-62
2022/08/18 02:13:15;;;;;;;8.47;6.60;;;16.70;99.90;;;;;;5078342;28;20277;-61
2022/08/18 02:15:41;;;;;;;10.33;6.53;;;16.70;99.90;;;;;;5083480;28;20301;-61
2022/08/18 02:18:16;;;;;;;11.33;6.70;;;16.70;99.90;;;;;;5077809;28;20678;-59
2022/08/18 02:20:42;;;;;;;10.73;6.67;;;16.80;99.90;;;;;;5081020;28;20566;-61
2022/08/18 02:23:10;;;;;;;8.70;6.67;;;16.80;99.90;;;;;;5086434;28;20821;-61
2022/08/18 02:25:36;;;;;;;8.00;6.90;;;16.80;99.90;;;;;;5073918;28;20443;-61
2022/08/18 02:28:02;;;;;;;10.27;7.90;;;16.80;99.90;;;;;;5074033;28;20443;-61
2022/08/18 02:30:28;;;;;;;10.27;7.90;;;16.80;99.90;;;;;;5076546;28;20960;-61
2022/08/18 02:32:55;;;;;;;7.70;6.70;;;16.90;99.90;;;;;;5079412;28;20429;-61
2022/08/18 02:35:21;;;;;;;8.97;7.37;;;16.90;99.90;;;;;;5081035;28;20710;-61
2022/08/18 02:37:46;;;;;;;7.60;6.40;;;16.90;99.90;;;;;;5091243;28;20439;-61
2022/08/18 02:40:14;;;;;;;8.30;6.77;;;16.90;99.90;;;;;;5072643;28;20232;-61
2022/08/18 02:42:40;;;;;;;8.50;6.70;;;16.90;99.90;;;;;;5090235;28;20178;-62
2022/08/18 02:45:07;;;;;;;9.90;7.13;;;16.90;99.90;;;;;;5086598;28;20439;-61
2022/08/18 02:47:32;;;;;;;13.20;7.50;;;16.90;99.90;;;;;;5078507;28;20456;-61
2022/08/18 02:49:58;;;;;;;9.43;6.73;;;16.90;99.90;;;;;;5086009;28;20940;-61
2022/08/18 02:52:33;;;;;;;8.00;7.00;;;16.90;99.90;;;;;;5084714;28;20426;-61
2022/08/18 02:55:01;;;;;;;9.10;7.40;;;16.90;99.90;;;;;;5079581;28;20201;-61
2022/08/18 02:57:29;;;;;;;10.30;6.83;;;17.00;99.90;;;;;;5081055;28;20425;-62
2022/08/18 02:59:54;;;;;;;9.80;7.20;;;17.00;99.90;;;;;;5087307;28;20416;-62
2022/08/18 03:02:21;;;;;;;9.87;7.33;;;17.00;99.90;;;;;;5077046;28;20485;-61
2022/08/18 03:04:47;;;;;;;9.83;6.80;;;17.00;99.90;;;;;;5081512;28;20233;-61
2022/08/18 03:07:13;;;;;;;7.77;6.97;;;17.00;99.90;;;;;;5080662;28;20457;-62
2022/08/18 03:09:40;;;;;;;11.40;8.53;;;17.00;99.90;;;;;;5090009;28;20643;-61
2022/08/18 03:12:07;;;;;;;7.83;6.80;;;17.00;99.90;;;;;;5083742;28;20504;-61
2022/08/18 03:14:34;;;;;;;9.53;7.20;;;17.00;99.90;;;;;;5087762;28;20905;-61
2022/08/18 03:17:03;;;;;;;9.37;7.60;;;17.00;99.90;;;;;;5088145;28;20446;-61
2022/08/18 03:19:29;;;;;;;8.43;6.80;;;17.00;99.90;;;;;;5085494;28;20451;-61
2022/08/18 03:21:58;;;;;;;9.37;7.00;;;17.00;99.90;;;;;;5081743;28;20427;-61
2022/08/18 03:24:24;;;;;;;9.43;7.10;;;17.00;99.90;;;;;;5080545;28;20671;-61
2022/08/18 03:26:52;;;;;;;8.80;7.20;;;17.00;99.90;;;;;;5071829;28;20409;-61
2022/08/18 03:29:19;;;;;;;9.80;7.37;;;17.00;99.90;;;;;;5077840;28;20440;-62
2022/08/18 03:31:47;;;;;;;8.87;7.00;;;16.90;99.90;;;;;;5076411;28;20449;-61
2022/08/18 03:34:13;;;;;;;9.63;7.27;;;16.90;99.90;;;;;;5089685;28;20954;-61
2022/08/18 03:36:40;;;;;;;11.47;7.90;;;16.90;99.90;;;;;;5088135;27;20435;-61
2022/08/18 03:39:10;;;;;;;9.47;6.83;;;16.90;99.90;;;;;;5078792;28;20539;-61
2022/08/18 03:41:42;;;;;;;8.50;6.93;;;16.90;99.90;;;;;;5077687;28;20526;-62
2022/08/18 03:44:09;;;;;;;9.20;7.20;;;17.00;99.90;;;;;;5082678;28;20448;-61
2022/08/18 03:46:34;;;;;;;13.53;7.83;;;17.00;99.90;;;;;;5085538;28;20938;-61
2022/08/18 03:49:00;;;;;;;10.47;6.60;;;17.00;99.90;;;;;;5088880;28;20415;-61
2022/08/18 03:51:30;;;;;;;10.10;7.40;;;17.00;99.90;;;;;;5088801;28;20179;-61
2022/08/18 03:53:59;;;;;;;8.20;6.70;;;17.00;99.90;;;;;;5080476;28;20939;-61
2022/08/18 03:56:28;;;;;;;10.73;6.80;;;17.00;99.90;;;;;;5081965;28;20416;-62
2022/08/18 03:58:57;;;;;;;14.93;7.07;;;17.00;99.90;;;;;;5085994;28;20458;-61
2022/08/18 04:01:26;;;;;;;8.23;7.20;;;17.10;99.90;;;;;;5078876;28;20494;-61
2022/08/18 04:03:55;;;;;;;7.90;7.10;;;17.10;99.90;;;;;;5075782;28;20474;-61
2022/08/18 04:06:30;;;;;;;9.30;7.97;;;17.10;99.90;;;;;;5076504;28;20492;-61
2022/08/18 04:08:59;;;;;;;11.13;7.20;;;17.10;99.90;;;;;;5071940;28;21037;-60
2022/08/18 04:11:27;;;;;;;10.03;7.90;;;17.10;99.90;;;;;;5082031;28;20527;-61
2022/08/18 04:13:56;;;;;;;11.70;8.27;;;17.10;99.90;;;;;;5078959;28;20518;-61
2022/08/18 04:16:23;;;;;;;10.10;8.20;;;17.10;99.90;;;;;;5068803;28;20428;-61
2022/08/18 04:18:49;;;;;;;9.63;8.00;;;17.10;99.90;;;;;;5079586;28;20552;-61
2022/08/18 04:21:14;;;;;;;11.63;7.97;;;17.10;99.90;;;;;;5083852;28;20897;-62
2022/08/18 04:23:40;;;;;;;9.70;7.40;;;17.10;99.90;;;;;;5082197;28;20680;-62
2022/08/18 04:26:08;;;;;;;10.50;7.63;;;17.10;99.90;;;;;;5080968;28;20209;-61
2022/08/18 04:28:34;;;;;;;12.07;9.13;;;17.10;99.90;;;;;;5079406;28;20844;-61
2022/08/18 04:31:06;;;;;;;15.03;9.30;;;17.10;99.90;;;;;;5083819;28;20439;-60
2022/08/18 04:33:32;;;;;;;13.63;8.67;;;17.10;99.90;;;;;;5081145;28;20478;-61
2022/08/18 04:35:57;;;;;;;10.87;8.60;;;17.10;99.90;;;;;;5080336;28;20991;-61
2022/08/18 04:38:23;;;;;;;10.10;8.33;;;17.10;99.90;;;;;;5079499;28;20229;-61
2022/08/18 04:40:49;;;;;;;10.77;8.73;;;17.10;99.90;;;;;;5079809;28;20197;-61
2022/08/18 04:43:15;;;;;;;10.00;8.13;;;17.10;99.90;;;;;;5085702;28;20178;-61
2022/08/18 04:45:49;;;;;;;10.97;9.20;;;17.10;99.90;;;;;;5082639;28;20490;-61
2022/08/18 04:48:16;;;;;;;14.27;9.63;;;17.10;99.90;;;;;;5073315;28;20189;-61
2022/08/18 04:50:42;;;;;;;11.10;9.33;;;17.10;99.90;;;;;;5079677;28;20486;-61
2022/08/18 04:55:54;;;;;;;18.97;9.77;;;17.20;99.90;;;;;;5065604;28;20501;-61
2022/08/18 04:58:23;;;;;;;16.43;9.80;;;17.20;99.90;;;;;;5082421;28;20534;-61
2022/08/18 05:01:00;;;;;;;14.80;10.50;;;17.20;99.90;;;;;;5074260;28;20431;-62
2022/08/18 05:03:26;;;;;;;21.63;11.93;;;17.20;99.90;;;;;;5082496;28;20932;-61
2022/08/18 05:05:59;;;;;;;15.57;10.80;;;17.20;99.90;;;;;;5077565;28;20456;-60
2022/08/18 05:08:25;;;;;;;20.33;11.87;;;17.20;99.90;;;;;;5074953;28;20428;-62
2022/08/18 05:10:58;;;;;;;16.87;11.10;;;17.20;99.90;;;;;;5082391;28;20433;-61
2022/08/18 05:13:25;;;;;;;15.07;10.60;;;17.20;99.90;;;;;;5083603;28;20431;-61
2022/08/18 05:15:56;;;;;;;21.67;9.90;;;17.20;99.90;;;;;;5071237;28;21035;-62
2022/08/18 05:18:25;;;;;;;15.87;8.80;;;17.20;99.90;;;;;;5082434;28;20486;-62
2022/08/18 05:20:52;;;;;;;11.23;8.63;;;17.20;99.90;;;;;;5078112;28;20474;-61
2022/08/18 05:23:22;;;;;;;11.37;7.90;;;17.20;99.90;;;;;;5082398;28;20431;-61
2022/08/18 05:25:48;;;;;;;9.77;7.47;;;17.20;99.90;;;;;;5088703;28;20455;-62
2022/08/18 05:28:14;;;;;;;10.47;7.10;;;17.20;99.90;;;;;;5091551;28;20484;-62
2022/08/18 05:30:41;;;;;;;11.73;7.83;;;17.20;99.90;;;;;;5088018;28;20436;-62
2022/08/18 05:33:11;;;;;;;9.83;7.33;;;17.20;99.90;;;;;;5073199;28;20854;-61
2022/08/18 05:35:42;;;;;;;8.83;7.37;;;17.10;99.90;;;;;;5077373;28;20475;-62
2022/08/18 05:38:33;;;;;;;9.53;7.20;;;17.10;99.90;;;;;;5082749;28;20464;-61
2022/08/18 05:41:09;;;;;;;11.50;7.40;;;17.10;99.90;;;;;;5079473;28;20428;-61
2022/08/18 05:43:36;;;;;;;12.67;8.30;;;17.20;99.90;;;;;;5087886;28;20427;-61
2022/08/18 05:46:04;;;;;;;13.77;9.20;;;17.20;99.90;;;;;;5081041;28;20458;-61
2022/08/18 05:48:31;;;;;;;9.83;8.43;;;17.20;99.90;;;;;;5077286;28;20432;-61
2022/08/18 05:51:01;;;;;;;15.27;9.67;;;17.20;99.90;;;;;;5092401;28;20408;-61
2022/08/18 05:56:45;;;;;;;12.10;9.83;;;17.20;99.90;;;;;;5078579;28;20450;-61
2022/08/18 05:59:25;;;;;;;12.20;8.47;;;17.20;99.90;;;;;;5085046;28;21046;-61
2022/08/18 06:02:26;;;;;;;13.30;7.80;;;17.20;99.90;;;;;;5078461;28;20560;-61
2022/08/18 06:05:23;;;;;;;9.80;7.50;;;17.20;99.90;;;;;;5088377;28;20435;-61
2022/08/18 06:07:54;;;;;;;8.97;7.73;;;17.10;99.90;;;;;;5070119;28;20440;-61
2022/08/18 06:10:21;;;;;;;10.57;8.77;;;17.10;99.90;;;;;;5090537;28;20938;-61
2022/08/18 06:12:54;;;;;;;8.30;7.37;;;17.20;99.90;;;;;;5077473;28;20987;-61
2022/08/18 06:15:30;;;;;;;17.50;7.83;;;17.20;99.90;;;;;;5076258;28;20452;-61
2022/08/18 06:18:08;;;;;;;9.77;8.00;;;17.20;99.90;;;;;;5076181;28;20543;-61
2022/08/18 06:20:42;;;;;;;11.83;8.80;;;17.20;99.90;;;;;;5089507;28;20412;-61
2022/08/18 06:23:29;;;;;;;9.70;7.83;;;17.20;99.90;;;;;;5086653;28;20428;-61
2022/08/18 06:26:06;;;;;;;10.20;8.20;;;17.20;99.90;;;;;;5079589;28;20454;-61
2022/08/18 06:28:56;;;;;;;10.10;8.03;;;17.30;99.90;;;;;;5082055;28;20427;-61
2022/08/18 06:31:37;;;;;;;11.13;8.00;;;17.30;99.90;;;;;;5075941;28;20432;-61
2022/08/18 06:34:11;;;;;;;9.40;8.07;;;17.40;99.90;;;;;;5076796;28;20435;-61
2022/08/18 06:36:52;;;;;;;11.80;7.90;;;17.40;99.90;;;;;;5070138;28;20515;-61
2022/08/18 06:39:26;;;;;;;12.57;8.37;;;17.50;99.90;;;;;;5083223;28;20550;-61
2022/08/18 06:41:53;;;;;;;9.50;7.57;;;17.50;99.90;;;;;;5082296;28;20492;-61
2022/08/18 06:44:21;;;;;;;11.30;7.60;;;17.60;99.90;;;;;;5080167;28;20543;-61
2022/08/18 06:46:55;;;;;;;11.40;7.60;;;17.60;99.90;;;;;;5077143;28;20623;-62
2022/08/18 06:49:34;;;;;;;12.30;7.93;;;17.70;99.90;;;;;;5078949;28;20442;-61
2022/08/18 06:52:35;;;;;;;10.50;7.47;;;17.70;99.90;;;;;;5074047;28;20436;-61
2022/08/18 06:55:03;;;;;;;12.87;7.80;;;17.90;99.90;;;;;;5080352;28;20448;-61
2022/08/18 06:57:35;;;;;;;9.27;7.80;;;18.00;99.90;;;;;;5082621;28;20957;-62
2022/08/18 07:00:06;;;;;;;10.00;6.90;;;18.00;99.90;;;;;;5084492;28;20443;-61
2022/08/18 07:03:06;;;;;;;11.50;7.97;;;18.10;99.90;;;;;;5080728;28;20934;-61
2022/08/18 07:05:34;;;;;;;12.30;8.50;;;18.20;99.90;;;;;;5069980;28;20455;-61
2022/08/18 07:08:05;;;;;;;8.40;6.87;;;18.40;99.90;;;;;;5089250;28;20431;-62
2022/08/18 07:10:34;;;;;;;10.57;9.00;;;18.50;99.90;;;;;;5088855;28;20947;-62
2022/08/18 07:13:27;;;;;;;10.43;7.60;;;18.50;99.90;;;;;;5078683;28;21058;-62
2022/08/18 07:16:15;;;;;;;10.63;7.63;;;18.50;99.90;;;;;;5090780;28;20470;-61
2022/08/18 07:18:41;;;;;;;10.03;7.20;;;18.50;99.90;;;;;;5079560;28;21146;-61
2022/08/18 07:21:07;;;;;;;10.97;8.23;;;18.60;99.90;;;;;;5072285;28;20533;-61
2022/08/18 07:23:39;;;;;;;11.20;8.40;;;18.80;99.90;;;;;;5087444;28;20481;-62
2022/08/18 07:26:14;;;;;;;11.77;8.87;;;18.80;99.90;;;;;;5083477;28;20196;-61
2022/08/18 07:28:43;;;;;;;13.00;8.87;;;18.90;99.90;;;;;;5085096;28;20428;-61
2022/08/18 07:31:36;;;;;;;11.50;7.60;;;19.00;99.90;;;;;;5085212;28;21069;-61
2022/08/18 07:34:16;;;;;;;17.20;8.50;;;19.00;99.90;;;;;;5080872;28;20554;-61
2022/08/18 07:36:49;;;;;;;11.00;7.97;;;19.00;99.90;;;;;;5082654;28;20508;-62
2022/08/18 07:39:48;;;;;;;11.93;8.50;;;19.10;99.90;;;;;;5087636;28;20456;-61
2022/08/18 07:42:16;;;;;;;10.60;8.80;;;19.10;99.90;;;;;;5079383;28;20481;-62
2022/08/18 07:45:16;;;;;;;11.90;8.67;;;19.20;99.90;;;;;;5082347;28;20444;-62
2022/08/18 07:48:08;;;;;;;11.27;8.10;;;19.10;99.90;;;;;;5063865;28;20482;-60
2022/08/18 07:50:47;;;;;;;10.37;8.93;;;19.10;99.90;;;;;;5069976;28;20515;-61
2022/08/18 07:53:36;;;;;;;10.00;8.13;;;19.10;99.90;;;;;;5077598;28;20456;-61
2022/08/18 07:56:06;;;;;;;9.60;8.20;;;19.10;99.90;;;;;;5075426;28;20805;-62
2022/08/18 07:58:57;;;;;;;10.00;7.80;;;19.10;99.90;;;;;;5077307;28;20554;-62
2022/08/18 08:01:42;;;;;;;10.73;8.00;;;19.10;99.90;;;;;;5073378;28;21128;-62
2022/08/18 08:04:55;;;;;;;12.80;8.27;;;19.00;99.90;;;;;;5072481;28;20486;-61
2022/08/18 08:07:25;;;;;;;8.90;8.00;;;19.00;99.90;;;;;;5063843;28;20526;-61
2022/08/18 08:10:13;;;;;;;9.90;8.77;;;19.00;99.90;;;;;;5081065;28;20426;-62
2022/08/18 08:13:04;;;;;;;9.40;8.30;;;19.20;99.90;;;;;;5073594;28;20442;-62
2022/08/18 08:15:42;;;;;;;11.90;8.43;;;19.30;99.90;;;;;;5079207;28;20448;-61
2022/08/18 08:18:14;;;;;;;12.43;9.27;;;19.40;99.90;;;;;;5078288;28;20463;-62
2022/08/18 08:20:50;;;;;;;12.17;9.20;;;19.30;99.90;;;;;;5071706;28;20481;-61
2022/08/18 08:23:35;;;;;;;11.30;9.00;;;19.30;99.90;;;;;;5077671;28;20427;-62
2022/08/18 08:26:37;;;;;;;14.20;9.73;;;19.30;99.90;;;;;;5077422;28;20452;-56
2022/08/18 08:29:11;;;;;;;12.10;8.73;;;19.40;99.90;;;;;;5043874;28;20440;-56
2022/08/18 08:32:10;;;;;;;13.53;9.70;;;19.60;99.90;;;;;;5084807;28;21084;-56
2022/08/18 08:34:36;;;;;;;11.17;9.10;;;20.00;99.90;;;;;;5075205;28;20475;-56
2022/08/18 08:37:08;;;;;;;10.13;8.03;;;20.30;99.90;;;;;;5076225;28;20965;-56
2022/08/18 08:39:48;;;;;;;11.63;9.57;;;20.50;99.90;;;;;;5082367;28;20201;-56
2022/08/18 08:42:51;;;;;;;14.53;8.80;;;20.60;99.90;;;;;;5075829;28;20435;-56
2022/08/18 08:45:23;;;;;;;10.40;8.70;;;20.70;99.90;;;;;;5065903;28;20462;-55
2022/08/18 08:48:08;;;;;;;17.20;9.10;;;20.90;99.90;;;;;;5073805;28;20458;-55
2022/08/18 08:50:39;;;;;;;12.87;8.60;;;21.00;99.90;;;;;;5080572;28;20445;-55
2022/08/18 08:53:07;;;;;;;12.93;9.53;;;21.20;99.90;;;;;;5080288;28;20940;-56
2022/08/18 08:55:40;;;;;;;12.07;8.80;;;21.30;99.90;;;;;;5082611;28;20459;-56
2022/08/18 08:58:20;;;;;;;10.73;9.60;;;21.30;99.90;;;;;;5081544;28;20460;-56
2022/08/18 09:00:47;;;;;;;12.83;9.93;;;21.50;99.90;;;;;;5089653;28;20419;-56
2022/08/18 09:03:48;;;;;;;11.47;9.47;;;21.50;99.90;;;;;;5082422;28;20451;-55
2022/08/18 09:06:35;;;;;;;11.30;9.40;;;21.50;99.90;;;;;;5087767;28;20506;-54
2022/08/18 09:09:04;;;;;;;10.53;8.80;;;21.50;99.90;;;;;;5088494;28;20523;-56
2022/08/18 09:11:57;;;;;;;11.17;9.90;;;21.60;99.90;;;;;;5081703;28;20458;-56
2022/08/18 09:14:25;;;;;;;10.87;9.20;;;21.70;99.90;;;;;;5078753;28;20463;-55
2022/08/18 09:17:28;;;;;;;11.03;8.67;;;21.90;99.90;;;;;;5081027;28;20424;-55
2022/08/18 09:20:00;;;;;;;11.50;8.20;;;22.00;99.90;;;;;;5078200;28;20482;-56
2022/08/18 09:22:34;;;;;;;9.60;8.60;;;22.20;99.90;;;;;;5090627;28;20423;-56
2022/08/18 09:25:00;;;;;;;10.00;7.90;;;22.20;99.90;;;;;;5080381;28;21123;-56
2022/08/18 09:27:40;;;;;;;9.37;8.37;;;22.30;99.90;;;;;;5081036;28;20433;-55
2022/08/18 09:30:07;;;;;;;9.47;8.20;;;22.40;99.90;;;;;;5076314;28;20182;-55
2022/08/18 09:33:02;;;;;;;10.27;7.20;;;22.60;99.90;;;;;;5074387;28;20425;-56
2022/08/18 09:35:27;;;;;;;11.83;8.47;;;22.70;99.90;;;;;;5081515;28;20523;-55
2022/08/18 09:44:11;;;;;;;8.73;7.93;;;22.90;99.90;;;;;;5080005;28;20502;-55
2022/08/18 09:46:42;;;;;;;8.60;7.50;;;22.80;97.40;;;;;;5083984;28;20427;-55
2022/08/18 09:49:29;;;;;;;9.53;8.10;;;22.60;99.90;;;;;;5077461;28;20435;-55
2022/08/18 09:51:55;;;;;;;8.40;6.77;;;22.50;99.90;;;;;;5075575;28;20426;-56
2022/08/18 09:54:23;;;;;;;8.27;7.37;;;22.50;99.90;;;;;;5086343;28;20424;-55
2022/08/18 09:56:49;;;;;;;10.40;8.13;;;22.40;99.90;;;;;;5079011;28;20174;-56
2022/08/18 09:59:33;;;;;;;7.97;7.07;;;22.50;99.90;;;;;;5085239;28;20493;-56
2022/08/18 10:02:05;;;;;;;10.50;7.97;;;22.50;99.90;;;;;;5084037;28;20231;-56
2022/08/18 10:04:32;;;;;;;7.63;6.93;;;22.50;99.10;;;;;;5082584;28;20448;-56
2022/08/18 10:07:16;;;;;;;8.23;7.03;;;22.50;98.10;;;;;;5085014;28;20464;-55
2022/08/18 10:10:13;;;;;;;10.47;7.10;;;22.50;98.40;;;;;;5077234;28;20979;-56
2022/08/18 10:13:01;;;;;;;7.33;6.27;;;22.50;96.70;;;;;;5088547;28;20516;-55
2022/08/18 10:15:39;;;;;;;6.20;5.60;;;22.50;98.30;;;;;;5092976;28;20446;-56
2022/08/18 10:18:23;;;;;;;6.97;6.20;;;22.50;97.90;;;;;;5087454;28;20479;-55
2022/08/18 10:21:07;;;;;;;6.70;5.97;;;22.60;94.80;;;;;;5079093;28;20466;-55
2022/08/18 10:23:56;;;;;;;7.40;5.60;;;22.50;94.00;;;;;;5085296;28;20943;-56
2022/08/18 10:26:32;;;;;;;6.80;6.10;;;22.50;94.90;;;;;;5069858;28;20436;-57
2022/08/18 10:29:10;;;;;;;6.60;6.00;;;22.50;94.10;;;;;;5083643;28;20515;-55
2022/08/18 10:31:54;;;;;;;7.20;6.50;;;22.50;93.00;;;;;;5092926;28;20408;-55
2022/08/18 10:34:37;;;;;;;8.30;6.37;;;22.60;93.20;;;;;;5079955;28;20460;-56
2022/08/18 10:37:19;;;;;;;6.27;5.67;;;22.70;94.20;;;;;;5082093;28;20447;-55
2022/08/18 10:39:51;;;;;;;10.27;6.67;;;22.80;93.00;;;;;;5091815;28;20562;-56
2022/08/18 10:42:38;;;;;;;6.60;6.00;;;22.90;91.90;;;;;;5081998;28;20462;-56
2022/08/18 10:45:24;;;;;;;6.57;5.97;;;23.00;92.30;;;;;;5079292;28;20455;-56
2022/08/18 10:48:07;;;;;;;7.20;6.50;;;23.10;91.10;;;;;;5085204;28;20412;-55
2022/08/18 10:51:24;;;;;;;7.43;6.57;;;23.10;91.80;;;;;;5083523;28;20968;-56
2022/08/18 10:53:54;;;;;;;8.03;6.73;;;23.20;92.60;;;;;;5059955;28;20437;-55
2022/08/18 10:56:41;;;;;;;6.90;6.23;;;23.20;91.80;;;;;;5076793;28;20431;-56
2022/08/18 10:59:15;;;;;;;8.07;6.43;;;23.20;93.40;;;;;;5080731;28;20459;-56
2022/08/18 11:01:55;;;;;;;6.50;5.90;;;23.30;92.60;;;;;;5077200;28;20440;-55
2022/08/18 11:04:29;;;;;;;6.83;5.70;;;23.30;93.30;;;;;;5086642;28;20454;-55
2022/08/18 11:07:10;;;;;;;6.03;5.40;;;23.40;93.60;;;;;;5082616;28;20428;-55
2022/08/18 11:09:37;;;;;;;6.20;5.60;;;23.40;91.50;;;;;;5081771;28;20469;-55
2022/08/18 11:12:04;;;;;;;6.47;5.97;;;23.40;89.50;;;;;;5091601;28;20470;-55
2022/08/18 11:14:43;;;;;;;8.30;5.67;;;23.40;90.00;;;;;;5087675;28;20978;-55
2022/08/18 11:17:36;;;;;;;6.83;6.13;;;23.40;92.50;;;;;;5085148;28;20480;-55
2022/08/18 11:20:06;;;;;;;7.63;6.57;;;23.40;94.90;;;;;;5084184;28;20471;-55
2022/08/18 11:22:34;;;;;;;6.60;5.90;;;23.30;95.90;;;;;;5087079;28;20464;-55
2022/08/18 11:25:03;;;;;;;6.20;5.60;;;23.20;94.50;;;;;;5086065;28;20448;-55
2022/08/18 11:27:34;;;;;;;7.40;5.30;;;23.20;92.50;;;;;;5086583;28;20439;-55
2022/08/18 11:30:01;;;;;;;5.63;5.13;;;23.10;92.20;;;;;;5086841;28;20839;-56
2022/08/18 11:32:31;;;;;;;5.97;5.17;;;23.10;92.90;;;;;;5088306;28;20460;-55
2022/08/18 11:34:56;;;;;;;6.23;5.50;;;23.20;93.90;;;;;;5078393;28;20463;-55
2022/08/18 11:37:42;;;;;;;5.70;5.20;;;23.30;92.70;;;;;;5079075;28;20454;-54
2022/08/18 11:40:37;;;;;;;6.53;5.90;;;23.30;92.70;;;;;;5086651;28;20232;-54
2022/08/18 11:43:12;;;;;;;6.40;5.47;;;23.40;92.40;;;;;;5078943;28;20432;-55
2022/08/18 11:45:44;;;;;;;6.33;5.73;;;23.50;92.40;;;;;;5082108;28;20463;-56
2022/08/18 11:48:27;;;;;;;5.80;5.30;;;23.70;93.40;;;;;;5091299;28;20437;-54
2022/08/18 11:51:00;;;;;;;6.30;5.47;;;23.80;92.90;;;;;;5079080;28;21195;-55
2022/08/18 11:53:31;;;;;;;5.87;5.37;;;23.80;92.50;;;;;;5082612;28;20526;-55
2022/08/18 11:56:23;;;;;;;5.80;5.10;;;23.70;92.60;;;;;;5081471;28;20487;-55
2022/08/18 11:58:55;;;;;;;6.23;5.67;;;23.60;93.00;;;;;;5089343;28;20455;-55
2022/08/18 12:01:32;;;;;;;6.03;5.43;;;23.50;93.00;;;;;;5079869;28;20468;-54
2022/08/18 12:04:15;;;;;;;6.10;5.50;;;23.50;93.90;;;;;;5081604;28;20435;-54
2022/08/18 12:06:54;;;;;;;5.30;4.60;;;23.40;93.50;;;;;;5087043;28;20424;-54
2022/08/18 12:09:26;;;;;;;5.43;4.80;;;23.40;90.90;;;;;;5080762;28;20435;-55
2022/08/18 12:11:56;;;;;;;5.83;4.80;;;23.40;89.00;;;;;;5077932;28;21126;-55
2022/08/18 12:14:25;;;;;;;4.70;4.30;;;23.50;88.10;;;;;;5090363;28;20444;-55
2022/08/18 12:16:51;;;;;;;5.20;4.57;;;23.60;87.60;;;;;;5086647;28;20535;-55
2022/08/18 12:19:20;;;;;;;6.13;4.80;;;23.80;86.90;;;;;;5085085;28;20539;-55
2022/08/18 12:21:55;;;;;;;7.60;4.47;;;24.10;85.90;;;;;;5083921;28;20952;-56
2022/08/18 12:24:27;;;;;;;4.67;4.27;;;24.40;80.80;;;;;;5075399;28;20460;-54
2022/08/18 12:26:53;;;;;;;5.07;4.67;;;24.60;79.50;;;;;;5079358;28;20431;-55
2022/08/18 12:29:20;;;;;;;5.30;4.80;;;24.70;75.70;;;;;;5089066;28;20499;-55
2022/08/18 12:31:49;;;;;;;5.57;4.70;;;24.70;72.30;;;;;;5091413;28;20200;-55
2022/08/18 12:34:19;;;;;;;5.33;4.87;;;24.50;71.30;;;;;;5089885;28;20447;-55
2022/08/18 12:36:45;;;;;;;5.40;4.90;;;24.40;72.50;;;;;;5072915;28;20515;-53
2022/08/18 12:39:12;;;;;;;5.17;4.60;;;24.30;74.40;;;;;;5081094;28;20505;-56
2022/08/18 12:41:38;;;;;;;5.30;4.80;;;24.10;77.40;;;;;;5082068;28;21080;-56
2022/08/18 12:44:04;;;;;;;8.87;5.10;;;23.90;79.10;;;;;;5081147;28;20499;-55
2022/08/18 12:46:30;;;;;;;6.43;4.40;;;23.80;81.70;;;;;;5084827;28;20239;-54
2022/08/18 12:48:55;;;;;;;5.23;4.53;;;23.70;81.50;;;;;;5086984;28;20185;-55
2022/08/18 12:51:21;;;;;;;5.13;4.63;;;23.60;80.70;;;;;;5082470;28;20436;-55
2022/08/18 12:53:47;;;;;;;5.20;4.70;;;23.50;84.70;;;;;;5088360;28;20178;-56
2022/08/18 12:56:21;;;;;;;5.50;4.83;;;23.50;88.60;;;;;;5087182;28;20264;-54
2022/08/18 12:58:48;;;;;;;5.00;4.50;;;23.50;86.10;;;;;;5085239;28;20194;-55
2022/08/18 13:01:16;;;;;;;5.60;4.80;;;23.40;80.20;;;;;;5075407;28;20436;-55
2022/08/18 13:03:43;;;;;;;5.83;4.97;;;23.30;76.40;;;;;;5079751;28;21076;-55
2022/08/18 13:06:10;;;;;;;5.40;4.90;;;23.20;80.60;;;;;;5047853;28;20520;-55
2022/08/18 13:08:36;;;;;;;4.93;4.43;;;23.20;83.00;;;;;;5065982;28;20427;-55
2022/08/18 13:11:02;;;;;;;6.33;4.83;;;23.10;86.50;;;;;;5065138;28;20512;-55
2022/08/18 13:13:28;;;;;;;8.27;4.90;;;23.10;88.30;;;;;;5070404;28;20429;-54
2022/08/18 13:15:54;;;;;;;6.10;5.17;;;23.10;90.70;;;;;;5068771;28;20201;-54
2022/08/18 13:18:19;;;;;;;5.33;4.83;;;23.10;87.40;;;;;;5070016;28;20197;-54
2022/08/18 13:20:45;;;;;;;5.87;5.27;;;23.10;90.90;;;;;;5067637;28;20811;-55
2022/08/18 13:23:11;;;;;;;6.40;5.80;;;23.10;92.80;;;;;;5068354;28;20955;-54
2022/08/18 13:25:37;;;;;;;5.97;5.47;;;23.00;95.00;;;;;;5075656;28;20196;-54
2022/08/18 13:28:04;;;;;;;6.27;5.63;;;22.90;95.90;;;;;;5083785;28;20170;-54
2022/08/18 13:30:30;;;;;;;5.90;5.30;;;22.90;96.80;;;;;;5082748;28;20946;-55